sensor_id;sensor_type;location;lat;lon;timestamp;P1;durP1;ratioP1;P2;durP2;ratioP2
35602;SDS011;21725;50.836;4.368;2023-04-03T00:03:12;11.45;;;5.78;;
35602;SDS011;21725;50.836;4.368;2023-04-03T00:06:18;8.27;;;5.68;;
35602;SDS011;21725;50.836;4.368;2023-04-03T00:09:30;8.80;;;5.13;;
35602;SDS011;21725;50.836;4.368;2023-04-03T00:12:39;11.40;;;6.47;;
35602;SDS011;21725;50.836;4.368;2023-04-03T00:15:53;10.98;;;6.38;;
35602;SDS011;21725;50.836;4.368;2023-04-03T00:19:04;7.80;;;3.70;;
35602;SDS011;21725;50.836;4.368;2023-04-03T00:22:23;7.90;;;5.10;;
35602;SDS011;21725;50.836;4.368;2023-04-03T00:25:29;10.88;;;5.68;;
35602;SDS011;21725;50.836;4.368;2023-04-03T00:28:34;9.20;;;5.18;;
35602;SDS011;21725;50.836;4.368;2023-04-03T00:32:00;11.10;;;5.13;;
35602;SDS011;21725;50.836;4.368;2023-04-03T00:35:08;8.75;;;5.57;;
35602;SDS011;21725;50.836;4.368;2023-04-03T00:38:19;6.20;;;4.65;;
35602;SDS011;21725;50.836;4.368;2023-04-03T00:41:39;7.65;;;4.78;;
35602;SDS011;21725;50.836;4.368;2023-04-03T00:47:49;9.18;;;5.22;;
35602;SDS011;21725;50.836;4.368;2023-04-03T00:51:00;8.90;;;5.20;;
35602;SDS011;21725;50.836;4.368;2023-04-03T00:54:12;8.52;;;5.10;;
35602;SDS011;21725;50.836;4.368;2023-04-03T00:57:21;7.03;;;4.78;;
35602;SDS011;21725;50.836;4.368;2023-04-03T01:00:42;7.70;;;5.00;;
35602;SDS011;21725;50.836;4.368;2023-04-03T01:03:54;12.93;;;6.30;;
35602;SDS011;21725;50.836;4.368;2023-04-03T01:10:13;13.75;;;7.93;;
35602;SDS011;21725;50.836;4.368;2023-04-03T01:13:41;14.65;;;5.85;;
35602;SDS011;21725;50.836;4.368;2023-04-03T01:16:54;9.30;;;5.90;;
35602;SDS011;21725;50.836;4.368;2023-04-03T01:26:51;7.93;;;5.47;;
35602;SDS011;21725;50.836;4.368;2023-04-03T01:30:02;9.98;;;5.05;;
35602;SDS011;21725;50.836;4.368;2023-04-03T01:33:21;10.20;;;5.27;;
35602;SDS011;21725;50.836;4.368;2023-04-03T01:36:29;6.95;;;5.00;;
35602;SDS011;21725;50.836;4.368;2023-04-03T01:43:44;9.20;;;4.53;;
35602;SDS011;21725;50.836;4.368;2023-04-03T01:46:51;11.10;;;5.88;;
35602;SDS011;21725;50.836;4.368;2023-04-03T01:49:55;11.00;;;5.72;;
35602;SDS011;21725;50.836;4.368;2023-04-03T01:53:07;7.82;;;5.07;;
35602;SDS011;21725;50.836;4.368;2023-04-03T01:56:31;6.47;;;4.47;;
35602;SDS011;21725;50.836;4.368;2023-04-03T01:59:44;9.93;;;5.70;;
35602;SDS011;21725;50.836;4.368;2023-04-03T02:02:55;11.40;;;5.82;;
35602;SDS011;21725;50.836;4.368;2023-04-03T02:06:08;9.32;;;5.10;;
35602;SDS011;21725;50.836;4.368;2023-04-03T02:09:26;8.40;;;5.38;;
35602;SDS011;21725;50.836;4.368;2023-04-03T02:13:05;11.27;;;5.63;;
35602;SDS011;21725;50.836;4.368;2023-04-03T02:16:43;10.67;;;6.27;;
35602;SDS011;21725;50.836;4.368;2023-04-03T02:19:49;12.25;;;5.68;;
35602;SDS011;21725;50.836;4.368;2023-04-03T02:22:58;12.48;;;6.72;;
35602;SDS011;21725;50.836;4.368;2023-04-03T02:26:04;9.98;;;4.40;;
35602;SDS011;21725;50.836;4.368;2023-04-03T02:36:41;11.13;;;6.30;;
35602;SDS011;21725;50.836;4.368;2023-04-03T02:40:05;12.88;;;5.88;;
35602;SDS011;21725;50.836;4.368;2023-04-03T02:43:16;13.32;;;6.22;;
35602;SDS011;21725;50.836;4.368;2023-04-03T02:46:22;8.30;;;5.25;;
35602;SDS011;21725;50.836;4.368;2023-04-03T02:49:28;11.73;;;5.82;;
35602;SDS011;21725;50.836;4.368;2023-04-03T02:52:28;13.40;;;5.88;;
35602;SDS011;21725;50.836;4.368;2023-04-03T02:55:37;9.68;;;6.07;;
35602;SDS011;21725;50.836;4.368;2023-04-03T02:58:46;7.95;;;5.45;;
35602;SDS011;21725;50.836;4.368;2023-04-03T03:05:31;8.82;;;5.78;;
35602;SDS011;21725;50.836;4.368;2023-04-03T03:08:41;12.43;;;5.97;;
35602;SDS011;21725;50.836;4.368;2023-04-03T03:11:42;8.55;;;5.25;;
35602;SDS011;21725;50.836;4.368;2023-04-03T03:14:55;9.25;;;5.75;;
35602;SDS011;21725;50.836;4.368;2023-04-03T03:17:58;9.45;;;4.80;;
35602;SDS011;21725;50.836;4.368;2023-04-03T03:21:08;13.38;;;6.45;;
35602;SDS011;21725;50.836;4.368;2023-04-03T03:24:25;10.27;;;6.03;;
35602;SDS011;21725;50.836;4.368;2023-04-03T03:27:26;12.63;;;7.20;;
35602;SDS011;21725;50.836;4.368;2023-04-03T03:30:43;10.18;;;5.75;;
35602;SDS011;21725;50.836;4.368;2023-04-03T03:33:44;10.75;;;5.38;;
35602;SDS011;21725;50.836;4.368;2023-04-03T03:36:45;12.60;;;7.22;;
35602;SDS011;21725;50.836;4.368;2023-04-03T03:40:04;8.85;;;6.50;;
35602;SDS011;21725;50.836;4.368;2023-04-03T03:46:17;9.68;;;5.72;;
35602;SDS011;21725;50.836;4.368;2023-04-03T03:49:18;9.70;;;5.55;;
35602;SDS011;21725;50.836;4.368;2023-04-03T03:52:42;11.80;;;6.15;;
35602;SDS011;21725;50.836;4.368;2023-04-03T03:55:45;8.80;;;5.95;;
35602;SDS011;21725;50.836;4.368;2023-04-03T03:59:03;9.43;;;6.50;;
35602;SDS011;21725;50.836;4.368;2023-04-03T04:02:33;10.35;;;6.30;;
35602;SDS011;21725;50.836;4.368;2023-04-03T04:05:36;9.98;;;5.80;;
35602;SDS011;21725;50.836;4.368;2023-04-03T04:42:49;11.55;;;6.25;;
35602;SDS011;21725;50.836;4.368;2023-04-03T04:46:02;9.57;;;6.68;;
35602;SDS011;21725;50.836;4.368;2023-04-03T04:49:34;12.40;;;7.40;;
35602;SDS011;21725;50.836;4.368;2023-04-03T04:52:50;10.32;;;6.70;;
35602;SDS011;21725;50.836;4.368;2023-04-03T04:56:05;11.60;;;7.75;;
35602;SDS011;21725;50.836;4.368;2023-04-03T04:59:24;13.63;;;8.48;;
35602;SDS011;21725;50.836;4.368;2023-04-03T05:02:25;11.63;;;7.32;;
35602;SDS011;21725;50.836;4.368;2023-04-03T05:05:33;10.25;;;6.20;;
35602;SDS011;21725;50.836;4.368;2023-04-03T05:08:44;13.45;;;7.32;;
35602;SDS011;21725;50.836;4.368;2023-04-03T05:12:09;22.55;;;7.95;;
35602;SDS011;21725;50.836;4.368;2023-04-03T05:19:03;15.35;;;7.47;;
35602;SDS011;21725;50.836;4.368;2023-04-03T05:22:36;11.15;;;8.07;;
35602;SDS011;21725;50.836;4.368;2023-04-03T05:25:52;11.02;;;7.45;;
35602;SDS011;21725;50.836;4.368;2023-04-03T05:29:14;13.18;;;8.30;;
35602;SDS011;21725;50.836;4.368;2023-04-03T05:32:42;12.00;;;7.30;;
35602;SDS011;21725;50.836;4.368;2023-04-03T05:35:48;11.90;;;7.55;;
35602;SDS011;21725;50.836;4.368;2023-04-03T05:39:17;15.75;;;9.68;;
35602;SDS011;21725;50.836;4.368;2023-04-03T05:42:23;16.02;;;8.68;;
35602;SDS011;21725;50.836;4.368;2023-04-03T05:45:24;12.90;;;7.97;;
35602;SDS011;21725;50.836;4.368;2023-04-03T05:48:45;13.05;;;9.02;;
35602;SDS011;21725;50.836;4.368;2023-04-03T05:51:58;13.93;;;7.93;;
35602;SDS011;21725;50.836;4.368;2023-04-03T05:55:24;10.27;;;7.95;;
35602;SDS011;21725;50.836;4.368;2023-04-03T05:58:27;14.85;;;8.48;;
35602;SDS011;21725;50.836;4.368;2023-04-03T06:01:44;10.00;;;7.32;;
35602;SDS011;21725;50.836;4.368;2023-04-03T06:08:29;14.68;;;8.20;;
35602;SDS011;21725;50.836;4.368;2023-04-03T06:11:39;10.27;;;7.38;;
35602;SDS011;21725;50.836;4.368;2023-04-03T06:15:00;9.00;;;6.90;;
35602;SDS011;21725;50.836;4.368;2023-04-03T06:18:20;13.20;;;8.65;;
35602;SDS011;21725;50.836;4.368;2023-04-03T06:21:27;8.73;;;6.90;;
35602;SDS011;21725;50.836;4.368;2023-04-03T06:25:01;15.00;;;7.28;;
35602;SDS011;21725;50.836;4.368;2023-04-03T06:28:24;13.75;;;7.32;;
35602;SDS011;21725;50.836;4.368;2023-04-03T06:31:28;10.05;;;7.88;;
35602;SDS011;21725;50.836;4.368;2023-04-03T06:34:46;13.23;;;7.25;;
35602;SDS011;21725;50.836;4.368;2023-04-03T06:37:57;12.40;;;7.97;;
35602;SDS011;21725;50.836;4.368;2023-04-03T06:41:16;10.05;;;7.90;;
35602;SDS011;21725;50.836;4.368;2023-04-03T06:44:46;11.95;;;8.30;;
35602;SDS011;21725;50.836;4.368;2023-04-03T06:47:51;13.48;;;8.25;;
35602;SDS011;21725;50.836;4.368;2023-04-03T06:51:27;12.75;;;8.02;;
35602;SDS011;21725;50.836;4.368;2023-04-03T06:58:06;15.45;;;8.00;;
35602;SDS011;21725;50.836;4.368;2023-04-03T07:01:13;10.45;;;7.57;;
35602;SDS011;21725;50.836;4.368;2023-04-03T07:04:25;11.50;;;7.20;;
35602;SDS011;21725;50.836;4.368;2023-04-03T07:11:02;13.35;;;7.97;;
35602;SDS011;21725;50.836;4.368;2023-04-03T07:17:50;11.27;;;7.60;;
35602;SDS011;21725;50.836;4.368;2023-04-03T07:20:54;10.25;;;6.90;;
35602;SDS011;21725;50.836;4.368;2023-04-03T07:24:35;11.45;;;6.38;;
35602;SDS011;21725;50.836;4.368;2023-04-03T07:28:08;10.93;;;6.85;;
35602;SDS011;21725;50.836;4.368;2023-04-03T07:31:20;12.27;;;6.28;;
35602;SDS011;21725;50.836;4.368;2023-04-03T07:34:39;9.40;;;6.60;;
35602;SDS011;21725;50.836;4.368;2023-04-03T07:37:59;9.48;;;6.13;;
35602;SDS011;21725;50.836;4.368;2023-04-03T07:41:05;10.55;;;8.05;;
35602;SDS011;21725;50.836;4.368;2023-04-03T07:44:13;11.57;;;7.55;;
35602;SDS011;21725;50.836;4.368;2023-04-03T07:47:36;10.30;;;6.32;;
35602;SDS011;21725;50.836;4.368;2023-04-03T07:50:47;10.63;;;7.00;;
35602;SDS011;21725;50.836;4.368;2023-04-03T07:53:50;14.32;;;7.55;;
35602;SDS011;21725;50.836;4.368;2023-04-03T07:56:54;11.05;;;6.47;;
35602;SDS011;21725;50.836;4.368;2023-04-03T08:03:58;9.70;;;7.18;;
35602;SDS011;21725;50.836;4.368;2023-04-03T08:06:59;12.70;;;7.40;;
35602;SDS011;21725;50.836;4.368;2023-04-03T08:10:00;12.85;;;6.72;;
35602;SDS011;21725;50.836;4.368;2023-04-03T08:13:26;12.10;;;7.40;;
35602;SDS011;21725;50.836;4.368;2023-04-03T08:16:55;10.82;;;7.47;;
35602;SDS011;21725;50.836;4.368;2023-04-03T08:20:23;9.43;;;7.18;;
35602;SDS011;21725;50.836;4.368;2023-04-03T08:23:27;9.88;;;6.80;;
35602;SDS011;21725;50.836;4.368;2023-04-03T08:26:33;11.13;;;7.40;;
35602;SDS011;21725;50.836;4.368;2023-04-03T08:29:43;12.40;;;6.35;;
35602;SDS011;21725;50.836;4.368;2023-04-03T08:32:47;12.88;;;6.60;;
35602;SDS011;21725;50.836;4.368;2023-04-03T08:35:57;15.05;;;6.78;;
35602;SDS011;21725;50.836;4.368;2023-04-03T08:39:18;10.30;;;5.78;;
35602;SDS011;21725;50.836;4.368;2023-04-03T08:42:51;9.15;;;5.60;;
35602;SDS011;21725;50.836;4.368;2023-04-03T08:46:05;12.57;;;6.63;;
35602;SDS011;21725;50.836;4.368;2023-04-03T08:49:33;7.90;;;5.65;;
35602;SDS011;21725;50.836;4.368;2023-04-03T08:52:58;8.23;;;6.47;;
35602;SDS011;21725;50.836;4.368;2023-04-03T08:56:10;10.10;;;6.03;;
35602;SDS011;21725;50.836;4.368;2023-04-03T08:59:27;9.10;;;5.55;;
35602;SDS011;21725;50.836;4.368;2023-04-03T09:02:55;10.18;;;4.82;;
35602;SDS011;21725;50.836;4.368;2023-04-03T09:06:31;7.53;;;4.80;;
35602;SDS011;21725;50.836;4.368;2023-04-03T09:09:49;8.20;;;4.80;;
35602;SDS011;21725;50.836;4.368;2023-04-03T09:12:57;8.30;;;4.43;;
35602;SDS011;21725;50.836;4.368;2023-04-03T09:16:36;8.77;;;5.25;;
35602;SDS011;21725;50.836;4.368;2023-04-03T09:23:14;10.18;;;4.22;;
35602;SDS011;21725;50.836;4.368;2023-04-03T09:26:51;9.50;;;3.85;;
35602;SDS011;21725;50.836;4.368;2023-04-03T09:33:30;12.82;;;4.38;;
35602;SDS011;21725;50.836;4.368;2023-04-03T09:43:31;7.88;;;3.55;;
35602;SDS011;21725;50.836;4.368;2023-04-03T09:46:47;7.22;;;3.78;;
35602;SDS011;21725;50.836;4.368;2023-04-03T09:49:47;5.40;;;2.92;;
35602;SDS011;21725;50.836;4.368;2023-04-03T09:57:19;8.82;;;4.68;;
35602;SDS011;21725;50.836;4.368;2023-04-03T10:00:22;7.97;;;3.88;;
35602;SDS011;21725;50.836;4.368;2023-04-03T10:03:42;6.88;;;3.95;;
35602;SDS011;21725;50.836;4.368;2023-04-03T10:48:00;4.30;;;2.30;;
35602;SDS011;21725;50.836;4.368;2023-04-03T10:58:47;7.22;;;2.70;;
35602;SDS011;21725;50.836;4.368;2023-04-03T11:02:16;3.97;;;2.53;;
35602;SDS011;21725;50.836;4.368;2023-04-03T11:15:39;7.03;;;3.38;;
35602;SDS011;21725;50.836;4.368;2023-04-03T11:29:33;7.82;;;2.85;;
35602;SDS011;21725;50.836;4.368;2023-04-03T11:33:24;7.05;;;2.50;;
35602;SDS011;21725;50.836;4.368;2023-04-03T11:36:24;6.38;;;3.03;;
35602;SDS011;21725;50.836;4.368;2023-04-03T11:43:54;7.45;;;3.42;;
35602;SDS011;21725;50.836;4.368;2023-04-03T11:50:54;7.75;;;2.30;;
35602;SDS011;21725;50.836;4.368;2023-04-03T11:55:01;7.20;;;3.67;;
35602;SDS011;21725;50.836;4.368;2023-04-03T12:01:56;5.13;;;2.60;;
35602;SDS011;21725;50.836;4.368;2023-04-03T12:05:25;6.65;;;3.00;;
35602;SDS011;21725;50.836;4.368;2023-04-03T12:22:09;8.77;;;3.33;;
35602;SDS011;21725;50.836;4.368;2023-04-03T12:32:57;6.40;;;3.38;;
35602;SDS011;21725;50.836;4.368;2023-04-03T12:47:05;4.30;;;2.28;;
35602;SDS011;21725;50.836;4.368;2023-04-03T12:50:48;4.95;;;2.50;;
35602;SDS011;21725;50.836;4.368;2023-04-03T12:54:22;4.88;;;2.75;;
35602;SDS011;21725;50.836;4.368;2023-04-03T12:57:29;7.97;;;3.08;;
35602;SDS011;21725;50.836;4.368;2023-04-03T13:03:43;2.92;;;2.53;;
35602;SDS011;21725;50.836;4.368;2023-04-03T13:07:19;3.85;;;2.30;;
35602;SDS011;21725;50.836;4.368;2023-04-03T13:14:22;5.40;;;2.45;;
35602;SDS011;21725;50.836;4.368;2023-04-03T13:21:27;5.15;;;2.63;;
35602;SDS011;21725;50.836;4.368;2023-04-03T13:24:38;5.45;;;2.55;;
35602;SDS011;21725;50.836;4.368;2023-04-03T13:27:56;6.63;;;2.53;;
35602;SDS011;21725;50.836;4.368;2023-04-03T13:34:07;3.95;;;2.20;;
35602;SDS011;21725;50.836;4.368;2023-04-03T13:37:38;4.78;;;2.40;;
35602;SDS011;21725;50.836;4.368;2023-04-03T13:40:52;6.30;;;2.50;;
35602;SDS011;21725;50.836;4.368;2023-04-03T13:47:44;3.22;;;2.20;;
35602;SDS011;21725;50.836;4.368;2023-04-03T13:57:38;4.57;;;2.92;;
35602;SDS011;21725;50.836;4.368;2023-04-03T14:01:17;7.35;;;2.60;;
35602;SDS011;21725;50.836;4.368;2023-04-03T14:04:23;4.32;;;2.35;;
35602;SDS011;21725;50.836;4.368;2023-04-03T14:07:35;6.28;;;2.38;;
35602;SDS011;21725;50.836;4.368;2023-04-03T14:10:39;7.82;;;3.03;;
35602;SDS011;21725;50.836;4.368;2023-04-03T14:13:40;6.85;;;2.08;;
35602;SDS011;21725;50.836;4.368;2023-04-03T14:16:46;6.30;;;2.60;;
35602;SDS011;21725;50.836;4.368;2023-04-03T14:19:51;3.22;;;1.92;;
35602;SDS011;21725;50.836;4.368;2023-04-03T14:22:58;4.38;;;2.20;;
35602;SDS011;21725;50.836;4.368;2023-04-03T14:32:38;6.32;;;3.08;;
35602;SDS011;21725;50.836;4.368;2023-04-03T14:35:45;4.53;;;2.55;;
35602;SDS011;21725;50.836;4.368;2023-04-03T14:42:22;4.38;;;2.50;;
35602;SDS011;21725;50.836;4.368;2023-04-03T14:45:26;9.02;;;3.53;;
35602;SDS011;21725;50.836;4.368;2023-04-03T14:51:53;5.57;;;2.58;;
35602;SDS011;21725;50.836;4.368;2023-04-03T14:55:20;4.63;;;2.50;;
35602;SDS011;21725;50.836;4.368;2023-04-03T14:58:41;5.95;;;2.47;;
35602;SDS011;21725;50.836;4.368;2023-04-03T15:02:01;5.45;;;2.35;;
35602;SDS011;21725;50.836;4.368;2023-04-03T15:05:10;3.45;;;2.28;;
35602;SDS011;21725;50.836;4.368;2023-04-03T15:08:19;5.18;;;2.60;;
35602;SDS011;21725;50.836;4.368;2023-04-03T15:11:31;5.70;;;2.63;;
35602;SDS011;21725;50.836;4.368;2023-04-03T15:14:42;4.50;;;2.50;;
35602;SDS011;21725;50.836;4.368;2023-04-03T15:17:43;6.55;;;2.90;;
35602;SDS011;21725;50.836;4.368;2023-04-03T15:20:50;5.03;;;2.20;;
35602;SDS011;21725;50.836;4.368;2023-04-03T15:24:08;5.07;;;2.40;;
35602;SDS011;21725;50.836;4.368;2023-04-03T15:27:16;6.65;;;3.25;;
35602;SDS011;21725;50.836;4.368;2023-04-03T15:30:34;2.95;;;2.00;;
35602;SDS011;21725;50.836;4.368;2023-04-03T15:33:44;3.15;;;1.90;;
35602;SDS011;21725;50.836;4.368;2023-04-03T15:36:59;3.15;;;2.10;;
35602;SDS011;21725;50.836;4.368;2023-04-03T15:40:06;4.63;;;2.50;;
35602;SDS011;21725;50.836;4.368;2023-04-03T15:43:28;5.82;;;2.45;;
35602;SDS011;21725;50.836;4.368;2023-04-03T15:46:33;7.07;;;3.42;;
35602;SDS011;21725;50.836;4.368;2023-04-03T15:49:36;7.50;;;2.85;;
35602;SDS011;21725;50.836;4.368;2023-04-03T15:55:54;4.07;;;2.22;;
35602;SDS011;21725;50.836;4.368;2023-04-03T15:59:15;4.45;;;2.20;;
35602;SDS011;21725;50.836;4.368;2023-04-03T16:02:31;3.83;;;2.30;;
35602;SDS011;21725;50.836;4.368;2023-04-03T16:05:35;8.10;;;2.42;;
35602;SDS011;21725;50.836;4.368;2023-04-03T16:31:16;8.10;;;3.40;;
35602;SDS011;21725;50.836;4.368;2023-04-03T16:34:17;6.32;;;2.80;;
35602;SDS011;21725;50.836;4.368;2023-04-03T16:37:26;9.00;;;3.63;;
35602;SDS011;21725;50.836;4.368;2023-04-03T16:40:32;6.35;;;2.80;;
35602;SDS011;21725;50.836;4.368;2023-04-03T16:47:14;6.20;;;2.88;;
35602;SDS011;21725;50.836;4.368;2023-04-03T16:50:28;6.80;;;3.67;;
35602;SDS011;21725;50.836;4.368;2023-04-03T16:53:31;4.53;;;2.72;;
35602;SDS011;21725;50.836;4.368;2023-04-03T16:56:51;5.95;;;2.83;;
35602;SDS011;21725;50.836;4.368;2023-04-03T16:59:51;7.20;;;3.75;;
35602;SDS011;21725;50.836;4.368;2023-04-03T17:03:02;6.80;;;2.90;;
35602;SDS011;21725;50.836;4.368;2023-04-03T17:06:03;6.45;;;2.70;;
35602;SDS011;21725;50.836;4.368;2023-04-03T17:09:14;7.35;;;2.70;;
35602;SDS011;21725;50.836;4.368;2023-04-03T17:12:22;7.32;;;2.65;;
35602;SDS011;21725;50.836;4.368;2023-04-03T17:15:25;6.30;;;2.83;;
35602;SDS011;21725;50.836;4.368;2023-04-03T17:18:31;6.00;;;2.75;;
35602;SDS011;21725;50.836;4.368;2023-04-03T17:21:33;5.53;;;2.58;;
35602;SDS011;21725;50.836;4.368;2023-04-03T17:24:37;8.63;;;2.80;;
35602;SDS011;21725;50.836;4.368;2023-04-03T17:27:40;7.10;;;2.80;;
35602;SDS011;21725;50.836;4.368;2023-04-03T17:30:51;7.70;;;3.42;;
35602;SDS011;21725;50.836;4.368;2023-04-03T17:33:52;6.00;;;2.72;;
35602;SDS011;21725;50.836;4.368;2023-04-03T17:37:11;4.28;;;2.90;;
35602;SDS011;21725;50.836;4.368;2023-04-03T17:40:16;8.93;;;3.50;;
35602;SDS011;21725;50.836;4.368;2023-04-03T17:43:22;7.72;;;3.67;;
35602;SDS011;21725;50.836;4.368;2023-04-03T17:46:29;6.32;;;3.25;;
35602;SDS011;21725;50.836;4.368;2023-04-03T17:53:16;4.68;;;2.92;;
35602;SDS011;21725;50.836;4.368;2023-04-03T17:56:24;6.32;;;3.30;;
35602;SDS011;21725;50.836;4.368;2023-04-03T17:59:49;5.45;;;2.38;;
35602;SDS011;21725;50.836;4.368;2023-04-03T18:02:54;4.97;;;2.38;;
35602;SDS011;21725;50.836;4.368;2023-04-03T18:06:15;5.03;;;3.03;;
35602;SDS011;21725;50.836;4.368;2023-04-03T18:12:41;7.18;;;2.50;;
35602;SDS011;21725;50.836;4.368;2023-04-03T18:15:57;8.98;;;3.30;;
35602;SDS011;21725;50.836;4.368;2023-04-03T18:18:58;5.78;;;2.67;;
35602;SDS011;21725;50.836;4.368;2023-04-03T18:22:15;3.97;;;2.20;;
35602;SDS011;21725;50.836;4.368;2023-04-03T18:25:20;7.78;;;2.70;;
35602;SDS011;21725;50.836;4.368;2023-04-03T18:28:29;4.70;;;3.10;;
35602;SDS011;21725;50.836;4.368;2023-04-03T18:31:42;5.47;;;2.72;;
35602;SDS011;21725;50.836;4.368;2023-04-03T18:34:55;8.68;;;2.83;;
35602;SDS011;21725;50.836;4.368;2023-04-03T18:37:59;7.07;;;2.97;;
35602;SDS011;21725;50.836;4.368;2023-04-03T18:41:13;5.45;;;2.97;;
35602;SDS011;21725;50.836;4.368;2023-04-03T18:44:24;6.13;;;2.40;;
35602;SDS011;21725;50.836;4.368;2023-04-03T18:47:29;5.43;;;2.53;;
35602;SDS011;21725;50.836;4.368;2023-04-03T18:50:40;7.70;;;3.03;;
35602;SDS011;21725;50.836;4.368;2023-04-03T18:53:43;5.93;;;2.42;;
35602;SDS011;21725;50.836;4.368;2023-04-03T18:56:54;7.95;;;2.47;;
35602;SDS011;21725;50.836;4.368;2023-04-03T19:00:00;5.20;;;2.45;;
35602;SDS011;21725;50.836;4.368;2023-04-03T19:03:03;6.53;;;2.40;;
35602;SDS011;21725;50.836;4.368;2023-04-03T19:06:06;8.70;;;2.90;;
35602;SDS011;21725;50.836;4.368;2023-04-03T19:09:30;5.40;;;2.97;;
35602;SDS011;21725;50.836;4.368;2023-04-03T19:12:34;6.68;;;3.03;;
35602;SDS011;21725;50.836;4.368;2023-04-03T19:15:39;8.25;;;2.75;;
35602;SDS011;21725;50.836;4.368;2023-04-03T19:18:47;7.88;;;2.30;;
35602;SDS011;21725;50.836;4.368;2023-04-03T19:21:53;6.35;;;3.28;;
35602;SDS011;21725;50.836;4.368;2023-04-03T19:28:17;5.75;;;2.75;;
35602;SDS011;21725;50.836;4.368;2023-04-03T19:31:27;6.10;;;3.60;;
35602;SDS011;21725;50.836;4.368;2023-04-03T19:34:39;10.40;;;2.60;;
35602;SDS011;21725;50.836;4.368;2023-04-03T19:37:42;6.40;;;2.78;;
35602;SDS011;21725;50.836;4.368;2023-04-03T19:40:52;11.70;;;4.22;;
35602;SDS011;21725;50.836;4.368;2023-04-03T19:44:05;7.63;;;2.67;;
35602;SDS011;21725;50.836;4.368;2023-04-03T19:47:17;5.97;;;3.33;;
35602;SDS011;21725;50.836;4.368;2023-04-03T19:50:27;5.78;;;3.53;;
35602;SDS011;21725;50.836;4.368;2023-04-03T19:53:36;8.95;;;3.42;;
35602;SDS011;21725;50.836;4.368;2023-04-03T19:56:46;6.03;;;3.22;;
35602;SDS011;21725;50.836;4.368;2023-04-03T19:59:58;8.45;;;3.00;;
35602;SDS011;21725;50.836;4.368;2023-04-03T20:03:02;6.18;;;3.65;;
35602;SDS011;21725;50.836;4.368;2023-04-03T20:06:12;6.20;;;2.65;;
35602;SDS011;21725;50.836;4.368;2023-04-03T20:09:24;5.90;;;2.47;;
35602;SDS011;21725;50.836;4.368;2023-04-03T20:12:26;7.85;;;2.92;;
35602;SDS011;21725;50.836;4.368;2023-04-03T20:15:31;7.38;;;3.03;;
35602;SDS011;21725;50.836;4.368;2023-04-03T20:18:42;8.00;;;3.53;;
35602;SDS011;21725;50.836;4.368;2023-04-03T20:21:46;6.63;;;3.40;;
35602;SDS011;21725;50.836;4.368;2023-04-03T20:24:52;11.77;;;3.67;;
35602;SDS011;21725;50.836;4.368;2023-04-03T20:28:08;12.63;;;3.25;;
35602;SDS011;21725;50.836;4.368;2023-04-03T20:31:28;8.55;;;3.75;;
35602;SDS011;21725;50.836;4.368;2023-04-03T20:34:47;8.27;;;3.30;;
35602;SDS011;21725;50.836;4.368;2023-04-03T20:37:50;7.90;;;3.17;;
35602;SDS011;21725;50.836;4.368;2023-04-03T20:40:54;10.63;;;3.65;;
35602;SDS011;21725;50.836;4.368;2023-04-03T20:43:54;7.75;;;3.05;;
35602;SDS011;21725;50.836;4.368;2023-04-03T20:46:59;5.78;;;2.60;;
35602;SDS011;21725;50.836;4.368;2023-04-03T20:50:02;10.73;;;3.28;;
35602;SDS011;21725;50.836;4.368;2023-04-03T20:53:09;8.15;;;2.58;;
35602;SDS011;21725;50.836;4.368;2023-04-03T20:56:13;7.35;;;3.67;;
35602;SDS011;21725;50.836;4.368;2023-04-03T20:59:15;7.13;;;3.28;;
35602;SDS011;21725;50.836;4.368;2023-04-03T21:02:16;6.38;;;3.72;;
35602;SDS011;21725;50.836;4.368;2023-04-03T21:05:17;8.27;;;3.00;;
35602;SDS011;21725;50.836;4.368;2023-04-03T21:22:09;6.35;;;3.38;;
35602;SDS011;21725;50.836;4.368;2023-04-03T21:25:27;5.70;;;3.20;;
35602;SDS011;21725;50.836;4.368;2023-04-03T21:28:30;5.07;;;3.10;;
35602;SDS011;21725;50.836;4.368;2023-04-03T21:34:47;7.68;;;2.88;;
35602;SDS011;21725;50.836;4.368;2023-04-03T21:38:00;11.35;;;2.75;;
35602;SDS011;21725;50.836;4.368;2023-04-03T21:41:06;7.40;;;2.58;;
35602;SDS011;21725;50.836;4.368;2023-04-03T21:44:18;8.73;;;3.17;;
35602;SDS011;21725;50.836;4.368;2023-04-03T21:47:20;8.55;;;3.17;;
35602;SDS011;21725;50.836;4.368;2023-04-03T21:50:23;6.13;;;3.15;;
35602;SDS011;21725;50.836;4.368;2023-04-03T21:53:24;7.53;;;3.10;;
35602;SDS011;21725;50.836;4.368;2023-04-03T21:56:29;6.90;;;3.10;;
35602;SDS011;21725;50.836;4.368;2023-04-03T21:59:30;7.53;;;2.63;;
35602;SDS011;21725;50.836;4.368;2023-04-03T22:02:51;9.30;;;2.97;;
35602;SDS011;21725;50.836;4.368;2023-04-03T22:06:02;7.63;;;3.03;;
35602;SDS011;21725;50.836;4.368;2023-04-03T22:09:08;6.00;;;2.38;;
35602;SDS011;21725;50.836;4.368;2023-04-03T22:32:05;5.10;;;2.70;;
35602;SDS011;21725;50.836;4.368;2023-04-03T22:35:15;9.00;;;2.80;;
35602;SDS011;21725;50.836;4.368;2023-04-03T22:38:22;6.55;;;2.13;;
35602;SDS011;21725;50.836;4.368;2023-04-03T22:41:23;8.52;;;2.50;;
35602;SDS011;21725;50.836;4.368;2023-04-03T22:44:30;9.70;;;3.05;;
35602;SDS011;21725;50.836;4.368;2023-04-03T22:47:45;5.45;;;2.70;;
35602;SDS011;21725;50.836;4.368;2023-04-03T22:50:49;6.00;;;2.95;;
35602;SDS011;21725;50.836;4.368;2023-04-03T22:53:54;4.72;;;2.63;;
35602;SDS011;21725;50.836;4.368;2023-04-03T22:56:58;5.25;;;2.95;;
35602;SDS011;21725;50.836;4.368;2023-04-03T23:00:26;8.30;;;2.55;;
35602;SDS011;21725;50.836;4.368;2023-04-03T23:03:29;10.63;;;2.70;;
35602;SDS011;21725;50.836;4.368;2023-04-03T23:06:32;6.70;;;2.65;;
35602;SDS011;21725;50.836;4.368;2023-04-03T23:09:33;7.55;;;2.70;;
35602;SDS011;21725;50.836;4.368;2023-04-03T23:12:40;5.47;;;2.70;;
35602;SDS011;21725;50.836;4.368;2023-04-03T23:15:50;6.93;;;2.83;;
35602;SDS011;21725;50.836;4.368;2023-04-03T23:18:59;7.50;;;2.88;;
35602;SDS011;21725;50.836;4.368;2023-04-03T23:22:00;8.93;;;3.40;;
35602;SDS011;21725;50.836;4.368;2023-04-03T23:25:12;5.32;;;3.13;;
35602;SDS011;21725;50.836;4.368;2023-04-03T23:28:13;13.15;;;4.47;;
35602;SDS011;21725;50.836;4.368;2023-04-03T23:31:14;6.55;;;2.97;;
35602;SDS011;21725;50.836;4.368;2023-04-03T23:34:24;5.82;;;2.88;;
35602;SDS011;21725;50.836;4.368;2023-04-03T23:37:28;7.47;;;2.85;;
35602;SDS011;21725;50.836;4.368;2023-04-03T23:40:29;6.57;;;2.78;;
35602;SDS011;21725;50.836;4.368;2023-04-03T23:43:30;6.75;;;2.83;;
35602;SDS011;21725;50.836;4.368;2023-04-03T23:46:33;5.63;;;2.90;;
35602;SDS011;21725;50.836;4.368;2023-04-03T23:49:46;5.85;;;2.58;;
35602;SDS011;21725;50.836;4.368;2023-04-03T23:52:52;8.30;;;2.88;;
35602;SDS011;21725;50.836;4.368;2023-04-03T23:55:53;6.00;;;3.28;;
35602;SDS011;21725;50.836;4.368;2023-04-03T23:58:53;5.40;;;2.55;;
